createdAt,value
2022-10-05T00:02:18.196Z,99.90
2022-10-05T00:04:44.768Z,99.90
2022-10-05T00:07:15.192Z,99.90
2022-10-05T00:12:19.738Z,99.90
2022-10-05T00:14:48.203Z,99.90
2022-10-05T00:17:18.101Z,99.90
2022-10-05T00:19:45.802Z,99.90
2022-10-05T00:22:17.428Z,99.90
2022-10-05T00:27:16.493Z,99.90
2022-10-05T00:29:44.309Z,99.90
2022-10-05T00:34:38.589Z,99.90
2022-10-05T00:37:06.174Z,99.90
2022-10-05T00:39:33.818Z,99.90
2022-10-05T00:42:18.214Z,99.90
2022-10-05T00:44:50.447Z,99.90
2022-10-05T00:47:35.005Z,99.90
2022-10-05T00:50:29.172Z,99.90
2022-10-05T00:53:04.977Z,99.90
2022-10-05T00:55:40.212Z,99.90
2022-10-05T00:58:16.882Z,99.90
2022-10-05T01:00:53.791Z,99.90
2022-10-05T01:03:25.676Z,99.90
2022-10-05T01:06:02.332Z,99.90
2022-10-05T01:08:40.453Z,99.90
2022-10-05T01:11:13.850Z,99.90
2022-10-05T01:13:48.851Z,99.90
2022-10-05T01:16:22.879Z,99.90
2022-10-05T01:18:55.913Z,99.90
2022-10-05T01:21:24.688Z,99.90
2022-10-05T01:24:28.693Z,99.90
2022-10-05T01:27:30.487Z,99.90
2022-10-05T01:30:02.849Z,99.90
2022-10-05T01:32:33.378Z,99.90
2022-10-05T01:35:10.695Z,99.90
2022-10-05T01:37:45.011Z,99.90
2022-10-05T01:40:19.035Z,99.90
2022-10-05T01:42:59.566Z,99.90
2022-10-05T01:45:32.798Z,99.90
2022-10-05T01:48:07.373Z,99.90
2022-10-05T01:50:45.763Z,99.90
2022-10-05T01:53:21.651Z,99.90
2022-10-05T01:55:54.683Z,99.90
2022-10-05T01:58:33.354Z,99.90
2022-10-05T02:01:06.795Z,99.90
2022-10-05T02:03:37.603Z,99.90
2022-10-05T02:06:10.139Z,99.90
2022-10-05T02:08:40.412Z,99.90
2022-10-05T02:11:08.840Z,99.90
2022-10-05T02:13:40.269Z,99.90
2022-10-05T02:16:14.210Z,99.90
2022-10-05T02:18:49.290Z,99.90
2022-10-05T02:21:17.170Z,99.90
2022-10-05T02:23:45.984Z,99.90
2022-10-05T02:28:47.155Z,99.90
2022-10-05T02:31:16.950Z,99.90
2022-10-05T02:33:43.806Z,99.90
2022-10-05T02:36:15.643Z,99.90
2022-10-05T02:38:58.719Z,99.90
2022-10-05T02:41:33.962Z,99.90
2022-10-05T02:44:10.768Z,99.90
2022-10-05T02:46:45.021Z,99.90
2022-10-05T02:49:21.111Z,99.90
2022-10-05T02:51:54.982Z,99.90
2022-10-05T02:54:34.223Z,99.90
2022-10-05T02:57:04.902Z,99.90
2022-10-05T02:59:38.116Z,99.90
2022-10-05T03:02:12.674Z,99.90
2022-10-05T03:04:46.951Z,99.90
2022-10-05T03:07:18.136Z,99.90
2022-10-05T03:09:56.604Z,99.90
2022-10-05T03:12:44.671Z,99.90
2022-10-05T03:15:24.339Z,99.90
2022-10-05T03:18:03.790Z,99.90
2022-10-05T03:20:39.256Z,99.90
2022-10-05T03:23:12.563Z,99.90
2022-10-05T03:26:07.391Z,99.90
2022-10-05T03:28:46.022Z,99.90
2022-10-05T03:31:22.561Z,99.90
2022-10-05T03:33:55.541Z,99.90
2022-10-05T03:36:29.220Z,99.90
2022-10-05T03:39:03.177Z,99.90
2022-10-05T03:41:36.018Z,99.90
2022-10-05T03:44:15.559Z,99.90
2022-10-05T03:46:55.534Z,99.90
2022-10-05T03:49:31.590Z,99.90
2022-10-05T03:52:05.460Z,99.90
2022-10-05T03:54:37.604Z,99.90
2022-10-05T03:57:10.137Z,99.90
2022-10-05T03:59:41.600Z,99.90
2022-10-05T04:02:18.242Z,99.90
2022-10-05T04:04:50.330Z,99.90
2022-10-05T04:07:28.962Z,99.90
2022-10-05T04:09:57.177Z,99.90
2022-10-05T04:12:27.318Z,99.90
2022-10-05T04:14:56.923Z,99.90
2022-10-05T04:17:31.761Z,99.90
2022-10-05T04:20:02.751Z,99.90
2022-10-05T04:22:33.714Z,99.90
2022-10-05T04:25:07.479Z,99.90
2022-10-05T04:27:38.541Z,99.90
2022-10-05T04:30:11.647Z,99.90
2022-10-05T04:32:42.386Z,99.90
2022-10-05T04:35:25.563Z,99.90
2022-10-05T04:37:59.295Z,99.90
2022-10-05T04:40:38.110Z,99.90
2022-10-05T04:43:10.898Z,99.90
2022-10-05T04:45:52.650Z,99.90
2022-10-05T04:48:45.580Z,99.90
2022-10-05T04:51:28.933Z,99.90
2022-10-05T04:54:06.039Z,99.90
2022-10-05T04:56:39.854Z,99.90
2022-10-05T04:59:45.458Z,99.90
2022-10-05T05:02:21.940Z,99.90
2022-10-05T05:05:22.923Z,99.90
2022-10-05T05:07:55.592Z,99.90
2022-10-05T05:10:58.066Z,99.90
2022-10-05T05:13:48.560Z,99.90
2022-10-05T05:16:37.160Z,99.90
2022-10-05T05:21:44.586Z,99.90
2022-10-05T05:24:19.485Z,99.90
2022-10-05T05:27:02.024Z,99.90
2022-10-05T05:29:40.402Z,99.90
2022-10-05T05:32:16.991Z,99.90
2022-10-05T05:34:56.895Z,99.90
2022-10-05T05:37:32.156Z,99.90
2022-10-05T05:40:07.385Z,99.90
2022-10-05T05:42:41.881Z,99.90
2022-10-05T05:45:16.921Z,99.90
2022-10-05T05:47:51.099Z,99.90
2022-10-05T05:50:42.400Z,99.90
2022-10-05T05:53:15.558Z,99.90
2022-10-05T05:55:45.293Z,99.90
2022-10-05T05:58:18.593Z,99.90
2022-10-05T06:00:50.550Z,99.90
2022-10-05T06:03:22.822Z,99.90
2022-10-05T06:05:54.109Z,99.90
2022-10-05T06:08:27.731Z,99.90
2022-10-05T06:10:59.980Z,99.90
2022-10-05T06:13:47.518Z,99.90
2022-10-05T06:21:22.464Z,99.90
2022-10-05T06:23:56.536Z,99.90
2022-10-05T06:26:41.093Z,99.90
2022-10-05T06:29:15.311Z,99.90
2022-10-05T06:31:58.855Z,99.90
2022-10-05T06:34:46.065Z,99.90
2022-10-05T06:37:18.278Z,99.90
2022-10-05T06:40:02.997Z,99.90
2022-10-05T06:42:53.965Z,99.90
2022-10-05T06:45:27.753Z,99.90
2022-10-05T06:48:04.928Z,99.90
2022-10-05T06:50:37.012Z,99.90
2022-10-05T06:53:27.156Z,99.90
2022-10-05T06:56:02.128Z,99.90
2022-10-05T06:58:45.562Z,99.90
2022-10-05T07:01:19.998Z,99.90
2022-10-05T07:04:02.073Z,99.90
2022-10-05T07:06:34.727Z,99.90
2022-10-05T07:09:14.097Z,99.90
2022-10-05T07:12:03.695Z,99.90
2022-10-05T07:14:49.346Z,99.90
2022-10-05T07:17:25.912Z,99.90
2022-10-05T07:20:00.295Z,99.90
2022-10-05T07:22:49.988Z,99.90
2022-10-05T07:25:21.032Z,99.90
2022-10-05T07:27:54.372Z,99.90
2022-10-05T07:32:58.990Z,99.90
2022-10-05T07:38:30.557Z,99.90
2022-10-05T07:41:04.209Z,99.90
2022-10-05T07:44:00.961Z,99.90
2022-10-05T07:46:38.087Z,99.90
2022-10-05T07:49:11.108Z,99.90
2022-10-05T07:51:40.611Z,99.90
2022-10-05T07:54:16.167Z,99.90
2022-10-05T07:56:44.912Z,99.90
2022-10-05T07:59:21.913Z,99.90
2022-10-05T08:01:53.983Z,99.90
2022-10-05T08:04:25.042Z,99.90
2022-10-05T08:06:55.256Z,99.90
2022-10-05T08:09:32.800Z,99.90
2022-10-05T08:12:07.127Z,99.90
2022-10-05T08:14:43.408Z,99.90
2022-10-05T08:17:20.643Z,99.90
2022-10-05T08:19:58.686Z,99.90
2022-10-05T08:22:31.060Z,99.90
2022-10-05T08:25:01.923Z,99.90
2022-10-05T08:27:35.619Z,99.90
2022-10-05T08:30:10.590Z,99.90
2022-10-05T08:32:40.816Z,99.90
2022-10-05T08:35:22.686Z,99.90
2022-10-05T08:40:50.901Z,99.90
2022-10-05T08:43:45.502Z,99.90
2022-10-05T08:46:42.268Z,99.90
2022-10-05T08:49:42.270Z,99.90
2022-10-05T08:52:24.050Z,99.90
2022-10-05T08:55:33.698Z,99.90
2022-10-05T08:58:20.258Z,99.90
2022-10-05T09:00:54.115Z,99.90
2022-10-05T09:03:56.624Z,99.90
2022-10-05T09:07:00.756Z,99.90
2022-10-05T09:09:46.546Z,99.90
2022-10-05T09:12:39.780Z,99.90
2022-10-05T09:15:32.923Z,99.90
2022-10-05T09:18:36.995Z,99.90
2022-10-05T09:21:12.533Z,99.90
2022-10-05T09:23:42.147Z,99.90
2022-10-05T09:26:40.824Z,99.90
2022-10-05T09:29:32.923Z,99.90
2022-10-05T09:32:24.437Z,99.90
2022-10-05T09:35:20.737Z,99.90
2022-10-05T09:38:10.761Z,99.90
2022-10-05T09:41:11.138Z,99.90
2022-10-05T09:44:27.184Z,99.90
2022-10-05T09:47:24.422Z,99.90
2022-10-05T09:50:11.643Z,99.90
2022-10-05T09:53:12.763Z,99.90
2022-10-05T09:56:24.387Z,99.90
2022-10-05T09:59:34.713Z,99.90
2022-10-05T10:02:22.984Z,99.90
2022-10-05T10:05:19.377Z,99.90
2022-10-05T10:08:05.407Z,99.90
2022-10-05T10:10:59.253Z,99.90
2022-10-05T10:14:01.278Z,99.90
2022-10-05T10:16:49.013Z,99.90
2022-10-05T10:19:54.217Z,99.90
2022-10-05T10:22:48.127Z,99.90
2022-10-05T10:25:37.764Z,99.90
2022-10-05T10:28:29.159Z,99.90
2022-10-05T10:31:19.529Z,99.90
2022-10-05T10:34:02.676Z,99.90
2022-10-05T10:36:47.719Z,99.90
2022-10-05T10:39:20.813Z,99.90
2022-10-05T10:42:09.888Z,99.90
2022-10-05T10:45:04.886Z,99.90
2022-10-05T10:47:41.677Z,99.90
2022-10-05T10:50:40.661Z,99.90
2022-10-05T10:53:48.055Z,99.90
2022-10-05T10:56:46.130Z,99.90
2022-10-05T11:00:03.992Z,99.90
2022-10-05T11:05:37.903Z,99.90
2022-10-05T11:11:31.590Z,99.90
2022-10-05T11:14:24.003Z,99.90
2022-10-05T11:17:10.204Z,99.90
2022-10-05T11:20:08.525Z,99.90
2022-10-05T11:22:57.847Z,99.90
2022-10-05T11:25:40.783Z,99.90
2022-10-05T11:28:45.755Z,99.90
2022-10-05T11:31:36.433Z,96.90
2022-10-05T11:34:46.460Z,94.50
2022-10-05T11:37:55.462Z,95.70
2022-10-05T11:41:01.492Z,93.10
2022-10-05T11:43:46.927Z,88.20
2022-10-05T11:46:19.532Z,81.20
2022-10-05T11:49:42.819Z,78.00
2022-10-05T11:52:19.175Z,81.10
2022-10-05T11:55:14.411Z,84.60
2022-10-05T11:57:49.157Z,86.80
2022-10-05T12:00:18.913Z,90.80
2022-10-05T12:03:03.110Z,90.00
2022-10-05T12:05:41.692Z,93.20
2022-10-05T12:08:27.144Z,95.70
2022-10-05T12:11:03.444Z,96.50
2022-10-05T12:18:56.302Z,98.90
2022-10-05T12:21:33.000Z,99.00
2022-10-05T12:24:03.316Z,98.70
2022-10-05T12:26:34.849Z,99.90
2022-10-05T12:37:02.861Z,99.90
2022-10-05T12:39:41.652Z,99.90
2022-10-05T12:42:18.007Z,99.90
2022-10-05T12:44:59.913Z,99.90
2022-10-05T12:47:38.691Z,99.90
2022-10-05T12:50:19.982Z,99.90
2022-10-05T12:58:20.626Z,99.90
2022-10-05T13:00:56.696Z,99.90
2022-10-05T13:03:26.415Z,99.90
2022-10-05T13:06:04.483Z,99.90
2022-10-05T13:08:41.493Z,99.90
2022-10-05T13:11:15.434Z,99.90
2022-10-05T13:13:54.794Z,99.90
2022-10-05T13:16:35.443Z,99.90
2022-10-05T13:19:21.652Z,99.90
2022-10-05T13:22:13.681Z,99.90
2022-10-05T13:24:51.671Z,99.90
2022-10-05T13:27:21.868Z,99.90
2022-10-05T13:35:00.036Z,99.90
2022-10-05T13:37:33.609Z,99.90
2022-10-05T13:40:16.747Z,99.90
2022-10-05T13:42:48.845Z,99.90
2022-10-05T13:45:21.108Z,99.90
2022-10-05T13:48:05.225Z,99.90
2022-10-05T13:50:35.027Z,99.90
2022-10-05T13:55:48.036Z,99.90
2022-10-05T14:13:37.461Z,99.90
2022-10-05T14:29:20.968Z,99.90
2022-10-05T14:44:29.299Z,99.90
2022-10-05T14:54:34.369Z,99.90
2022-10-05T15:02:39.513Z,99.90
2022-10-05T15:10:29.165Z,99.90
2022-10-05T15:13:10.620Z,99.90
2022-10-05T15:18:19.836Z,99.90
2022-10-05T15:20:54.030Z,99.90
2022-10-05T15:23:26.947Z,99.90
2022-10-05T15:31:03.185Z,99.90
2022-10-05T15:48:52.122Z,99.90
2022-10-05T16:23:02.024Z,99.90
2022-10-05T16:38:26.217Z,99.90
2022-10-05T16:41:02.148Z,99.90
2022-10-05T16:43:40.663Z,99.90
2022-10-05T16:46:16.535Z,99.90
2022-10-05T16:48:54.068Z,99.90
2022-10-05T16:51:28.630Z,99.90
2022-10-05T16:54:09.957Z,99.90
2022-10-05T16:56:41.965Z,99.90
2022-10-05T16:59:34.288Z,99.90
2022-10-05T17:02:14.476Z,99.90
2022-10-05T17:04:55.942Z,99.90
2022-10-05T17:07:46.354Z,99.90
2022-10-05T17:10:40.361Z,99.90
2022-10-05T17:13:22.905Z,99.90
2022-10-05T17:16:00.006Z,99.90
2022-10-05T17:18:50.043Z,99.90
2022-10-05T17:21:24.052Z,99.90
2022-10-05T17:23:58.625Z,99.90
2022-10-05T17:26:53.199Z,99.90
2022-10-05T17:29:27.492Z,99.90
2022-10-05T17:32:02.323Z,99.90
2022-10-05T17:34:33.587Z,99.90
2022-10-05T17:37:16.304Z,99.90
2022-10-05T17:39:49.026Z,99.90
2022-10-05T17:42:44.855Z,99.90
2022-10-05T17:45:51.342Z,99.90
2022-10-05T17:48:40.938Z,99.90
2022-10-05T17:51:35.886Z,99.90
2022-10-05T17:54:38.151Z,99.90
2022-10-05T17:57:24.388Z,99.90
2022-10-05T17:59:59.598Z,99.90
2022-10-05T18:02:41.934Z,99.90
2022-10-05T18:05:26.990Z,99.90
2022-10-05T18:08:30.372Z,99.90
2022-10-05T18:11:11.977Z,99.90
2022-10-05T18:13:44.699Z,99.90
2022-10-05T18:16:11.358Z,99.90
2022-10-05T18:18:56.728Z,99.90
2022-10-05T18:21:37.324Z,99.90
2022-10-05T18:24:26.078Z,99.90
2022-10-05T18:27:05.288Z,99.90
2022-10-05T18:30:02.563Z,99.90
2022-10-05T18:32:41.712Z,99.90
2022-10-05T18:35:14.401Z,99.90
2022-10-05T18:37:53.810Z,99.90
2022-10-05T18:40:29.699Z,99.90
2022-10-05T18:43:08.061Z,99.90
2022-10-05T18:45:47.275Z,99.90
2022-10-05T18:48:22.081Z,99.90
2022-10-05T18:50:55.543Z,99.90
2022-10-05T18:53:30.053Z,99.90
2022-10-05T18:56:03.234Z,99.90
2022-10-05T18:58:41.365Z,99.90
2022-10-05T19:01:35.837Z,99.90
2022-10-05T19:04:21.970Z,99.90
2022-10-05T19:07:02.907Z,99.90
2022-10-05T19:09:49.171Z,99.90
2022-10-05T19:12:29.127Z,99.90
2022-10-05T19:15:05.636Z,99.90
2022-10-05T19:17:51.574Z,99.90
2022-10-05T19:20:24.412Z,99.90
2022-10-05T19:23:12.092Z,99.90
2022-10-05T19:25:43.647Z,99.90
2022-10-05T19:28:21.788Z,99.90
2022-10-05T19:31:01.017Z,99.90
2022-10-05T19:33:37.100Z,99.90
2022-10-05T19:36:18.434Z,99.90
2022-10-05T19:39:00.424Z,99.90
2022-10-05T19:41:35.314Z,99.90
2022-10-05T19:44:14.000Z,99.90
2022-10-05T19:47:00.114Z,99.90
2022-10-05T19:49:48.380Z,99.90
2022-10-05T19:52:22.165Z,99.90
2022-10-05T19:55:03.887Z,99.90
2022-10-05T19:57:31.769Z,99.90
2022-10-05T19:59:59.323Z,99.90
2022-10-05T20:02:26.590Z,99.90
2022-10-05T20:09:57.475Z,99.90
2022-10-05T20:12:49.802Z,99.90
2022-10-05T20:15:37.833Z,99.90
2022-10-05T20:18:54.238Z,99.90
2022-10-05T20:21:46.076Z,99.90
2022-10-05T20:24:14.222Z,99.90
2022-10-05T20:27:13.812Z,99.90
2022-10-05T20:29:42.017Z,99.90
2022-10-05T20:32:11.682Z,99.90
2022-10-05T20:34:43.928Z,99.90
2022-10-05T20:37:12.122Z,99.90
2022-10-05T20:42:07.087Z,99.90
2022-10-05T20:44:34.047Z,99.90
2022-10-05T20:47:01.054Z,99.90
2022-10-05T20:49:30.258Z,99.90
2022-10-05T20:54:25.883Z,99.90
2022-10-05T21:09:10.936Z,99.90
2022-10-05T21:11:41.151Z,99.90
2022-10-05T21:19:06.315Z,99.90
2022-10-05T21:24:00.703Z,99.90
2022-10-05T21:31:21.851Z,99.90
2022-10-05T21:36:15.220Z,99.90
2022-10-05T21:38:42.059Z,99.90
2022-10-05T21:41:09.384Z,99.90
2022-10-05T21:46:03.374Z,99.90
2022-10-05T21:48:32.112Z,99.90
2022-10-05T21:51:00.299Z,99.90
2022-10-05T21:53:33.077Z,99.90
2022-10-05T21:58:31.126Z,99.90
2022-10-05T22:03:24.920Z,99.90
2022-10-05T22:08:21.776Z,99.90
2022-10-05T22:15:44.320Z,99.90
2022-10-05T22:18:17.184Z,99.90
2022-10-05T22:28:08.400Z,99.90
2022-10-05T22:33:03.070Z,99.90
2022-10-05T22:42:52.479Z,99.90
2022-10-05T22:47:46.182Z,99.90
2022-10-05T22:50:13.750Z,99.90
2022-10-05T22:55:09.085Z,99.90
2022-10-05T22:57:39.177Z,99.90
2022-10-05T23:00:07.356Z,99.90
2022-10-05T23:02:36.912Z,99.90
2022-10-05T23:05:04.736Z,99.90
2022-10-05T23:07:36.342Z,99.90
2022-10-05T23:22:17.552Z,99.90
2022-10-05T23:39:28.339Z,99.90
2022-10-05T23:41:55.589Z,99.90
2022-10-05T23:44:22.425Z,99.90
2022-10-05T23:46:49.029Z,99.90
2022-10-05T23:51:44.156Z,99.90
2022-10-05T23:54:10.696Z,99.90
2022-10-05T23:59:04.705Z,99.90
